sensor_id;sensor_type;location;lat;lon;timestamp;pressure;altitude;pressure_sealevel;temperature;humidity
5298;BME280;14738;42.668;23.250;2023-06-22T00:02:00;48390.31;;;-141.90;75.15
5298;BME280;14738;42.668;23.250;2023-06-22T00:04:25;48388.31;;;-141.90;74.58
5298;BME280;14738;42.668;23.250;2023-06-22T00:06:52;48380.38;;;-141.90;74.76
5298;BME280;14738;42.668;23.250;2023-06-22T00:09:18;48368.47;;;-141.90;75.05
5298;BME280;14738;42.668;23.250;2023-06-22T00:11:44;48410.16;;;-141.90;74.65
5298;BME280;14738;42.668;23.250;2023-06-22T00:14:10;48398.25;;;-141.90;74.02
5298;BME280;14738;42.668;23.250;2023-06-22T00:16:36;48390.31;;;-141.90;74.29
5298;BME280;14738;42.668;23.250;2023-06-22T00:19:03;48394.28;;;-141.90;75.34
5298;BME280;14738;42.668;23.250;2023-06-22T00:21:28;48390.31;;;-141.90;75.56
5298;BME280;14738;42.668;23.250;2023-06-22T00:23:54;48422.06;;;-141.90;74.62
5298;BME280;14738;42.668;23.250;2023-06-22T00:26:20;48406.19;;;-141.90;73.42
5298;BME280;14738;42.668;23.250;2023-06-22T00:28:46;48426.03;;;-141.90;73.09
5298;BME280;14738;42.668;23.250;2023-06-22T00:31:12;48400.22;;;-141.90;72.70
5298;BME280;14738;42.668;23.250;2023-06-22T00:33:39;48378.38;;;-141.90;72.94
5298;BME280;14738;42.668;23.250;2023-06-22T00:36:05;48398.25;;;-141.90;75.16
5298;BME280;14738;42.668;23.250;2023-06-22T00:38:31;48414.13;;;-141.90;75.80
5298;BME280;14738;42.668;23.250;2023-06-22T00:40:56;48392.28;;;-141.90;76.23
5298;BME280;14738;42.668;23.250;2023-06-22T00:43:22;48398.25;;;-141.90;75.51
5298;BME280;14738;42.668;23.250;2023-06-22T00:45:47;48418.09;;;-141.90;74.91
5298;BME280;14738;42.668;23.250;2023-06-22T00:48:15;48422.06;;;-141.90;74.78
5298;BME280;14738;42.668;23.250;2023-06-22T00:50:42;48392.28;;;-141.90;75.29
5298;BME280;14738;42.668;23.250;2023-06-22T00:53:09;48398.25;;;-141.90;75.73
5298;BME280;14738;42.668;23.250;2023-06-22T00:55:36;48402.22;;;-141.90;74.73
5298;BME280;14738;42.668;23.250;2023-06-22T00:58:06;48422.06;;;-141.90;73.02
5298;BME280;14738;42.668;23.250;2023-06-22T01:00:37;48356.56;;;-141.90;73.05
5298;BME280;14738;42.668;23.250;2023-06-22T01:03:04;48386.34;;;-141.90;75.32
5298;BME280;14738;42.668;23.250;2023-06-22T01:05:34;48408.16;;;-141.90;75.33
5298;BME280;14738;42.668;23.250;2023-06-22T01:16:15;48390.31;;;-141.90;79.08
5298;BME280;14738;42.668;23.250;2023-06-22T01:18:43;48388.31;;;-141.90;80.08
5298;BME280;14738;42.668;23.250;2023-06-22T01:21:13;48398.25;;;-141.90;88.04
5298;BME280;14738;42.668;23.250;2023-06-22T01:26:17;48388.31;;;-141.90;92.40
5298;BME280;14738;42.668;23.250;2023-06-22T01:28:49;48406.19;;;-141.90;90.94
5298;BME280;14738;42.668;23.250;2023-06-22T01:31:20;48414.13;;;-141.90;90.79
5298;BME280;14738;42.668;23.250;2023-06-22T01:33:51;48380.38;;;-141.90;90.56
5298;BME280;14738;42.668;23.250;2023-06-22T01:36:18;48366.47;;;-141.90;91.38
5298;BME280;14738;42.668;23.250;2023-06-22T01:38:45;48372.44;;;-141.90;90.83
5298;BME280;14738;42.668;23.250;2023-06-22T01:41:12;48368.47;;;-141.90;92.11
5298;BME280;14738;42.668;23.250;2023-06-22T01:43:38;48392.28;;;-141.90;92.79
5298;BME280;14738;42.668;23.250;2023-06-22T01:46:04;48388.31;;;-141.90;92.91
5298;BME280;14738;42.668;23.250;2023-06-22T01:48:30;48378.38;;;-141.90;94.20
5298;BME280;14738;42.668;23.250;2023-06-22T01:50:57;48390.31;;;-141.90;95.11
5298;BME280;14738;42.668;23.250;2023-06-22T01:53:23;48394.28;;;-141.90;94.87
5298;BME280;14738;42.668;23.250;2023-06-22T01:55:49;48432.00;;;-141.90;93.89
5298;BME280;14738;42.668;23.250;2023-06-22T01:58:14;48392.28;;;-141.90;93.81
5298;BME280;14738;42.668;23.250;2023-06-22T02:00:45;48370.44;;;-141.90;94.75
5298;BME280;14738;42.668;23.250;2023-06-22T02:03:19;48398.25;;;-141.90;93.96
5298;BME280;14738;42.668;23.250;2023-06-22T02:05:55;48390.31;;;-141.90;93.75
5298;BME280;14738;42.668;23.250;2023-06-22T02:08:28;48398.25;;;-141.90;93.17
5298;BME280;14738;42.668;23.250;2023-06-22T02:10:55;48398.25;;;-141.90;93.63
5298;BME280;14738;42.668;23.250;2023-06-22T02:13:24;48406.19;;;-141.90;94.61
5298;BME280;14738;42.668;23.250;2023-06-22T02:15:50;48378.38;;;-141.90;95.04
5298;BME280;14738;42.668;23.250;2023-06-22T02:18:16;48398.25;;;-141.90;94.39
5298;BME280;14738;42.668;23.250;2023-06-22T02:20:42;48414.13;;;-141.90;93.94
5298;BME280;14738;42.668;23.250;2023-06-22T02:23:08;48404.19;;;-141.90;93.27
5298;BME280;14738;42.668;23.250;2023-06-22T02:25:34;48394.28;;;-141.90;92.24
5298;BME280;14738;42.668;23.250;2023-06-22T02:28:00;48392.28;;;-141.90;92.80
5298;BME280;14738;42.668;23.250;2023-06-22T02:30:27;48378.38;;;-141.90;93.26
5298;BME280;14738;42.668;23.250;2023-06-22T02:32:52;48404.19;;;-141.90;94.55
5298;BME280;14738;42.668;23.250;2023-06-22T02:35:28;48394.28;;;-141.90;94.49
5298;BME280;14738;42.668;23.250;2023-06-22T02:37:58;48402.22;;;-141.90;94.27
5298;BME280;14738;42.668;23.250;2023-06-22T02:40:24;48404.19;;;-141.90;93.60
5298;BME280;14738;42.668;23.250;2023-06-22T02:42:50;48394.28;;;-141.90;93.18
5298;BME280;14738;42.668;23.250;2023-06-22T02:45:15;48392.28;;;-141.90;93.09
5298;BME280;14738;42.668;23.250;2023-06-22T02:47:41;48408.16;;;-141.90;93.02
5298;BME280;14738;42.668;23.250;2023-06-22T02:50:07;48410.16;;;-141.90;93.39
5298;BME280;14738;42.668;23.250;2023-06-22T02:52:32;48390.31;;;-141.90;93.56
5298;BME280;14738;42.668;23.250;2023-06-22T02:54:57;48408.16;;;-141.90;93.07
5298;BME280;14738;42.668;23.250;2023-06-22T02:57:23;48414.13;;;-141.90;92.56
5298;BME280;14738;42.668;23.250;2023-06-22T02:59:48;48406.19;;;-141.90;93.15
5298;BME280;14738;42.668;23.250;2023-06-22T03:02:16;48378.38;;;-141.90;92.86
5298;BME280;14738;42.668;23.250;2023-06-22T03:04:41;48392.28;;;-141.90;92.42
5298;BME280;14738;42.668;23.250;2023-06-22T03:07:08;48390.31;;;-141.90;92.03
5298;BME280;14738;42.668;23.250;2023-06-22T03:09:33;48424.06;;;-141.90;90.94
5298;BME280;14738;42.668;23.250;2023-06-22T03:11:59;48396.25;;;-141.90;90.45
5298;BME280;14738;42.668;23.250;2023-06-22T03:14:24;48406.19;;;-141.90;89.69
5298;BME280;14738;42.668;23.250;2023-06-22T03:16:50;48398.25;;;-141.90;88.98
5298;BME280;14738;42.668;23.250;2023-06-22T03:19:15;48424.06;;;-141.90;83.89
5298;BME280;14738;42.668;23.250;2023-06-22T03:21:40;48443.91;;;-141.90;77.66
5298;BME280;14738;42.668;23.250;2023-06-22T03:24:06;48485.59;;;-141.90;73.82
5298;BME280;14738;42.668;23.250;2023-06-22T03:26:32;48477.66;;;-141.90;68.22
5298;BME280;14738;42.668;23.250;2023-06-22T03:28:58;48463.75;;;-141.90;66.19
5298;BME280;14738;42.668;23.250;2023-06-22T03:31:23;48497.50;;;-141.90;64.94
5298;BME280;14738;42.668;23.250;2023-06-22T03:33:49;48517.34;;;-141.90;62.47
5298;BME280;14738;42.668;23.250;2023-06-22T03:36:16;48543.16;;;-141.90;59.05
5298;BME280;14738;42.668;23.250;2023-06-22T03:38:48;48565.00;;;-141.90;44.26
5298;BME280;14738;42.668;23.250;2023-06-22T03:41:15;48572.94;;;-141.90;43.62
5298;BME280;14738;42.668;23.250;2023-06-22T03:43:40;48561.03;;;-141.90;43.38
5298;BME280;14738;42.668;23.250;2023-06-22T03:46:06;48608.69;;;-141.90;43.30
5298;BME280;14738;42.668;23.250;2023-06-22T03:48:33;48620.59;;;-141.90;41.06
5298;BME280;14738;42.668;23.250;2023-06-22T03:51:02;48604.72;;;-141.90;41.64
5298;BME280;14738;42.668;23.250;2023-06-22T03:53:29;48624.56;;;-141.90;42.28
5298;BME280;14738;42.668;23.250;2023-06-22T03:55:55;48596.78;;;-141.90;42.23
5298;BME280;14738;42.668;23.250;2023-06-22T03:58:21;48628.53;;;-141.90;42.23
5298;BME280;14738;42.668;23.250;2023-06-22T04:00:47;48608.69;;;-141.90;42.19
5298;BME280;14738;42.668;23.250;2023-06-22T04:03:14;48557.06;;;-141.90;44.09
5298;BME280;14738;42.668;23.250;2023-06-22T04:05:40;48588.84;;;-141.90;45.38
5298;BME280;14738;42.668;23.250;2023-06-22T04:08:06;48580.88;;;-141.90;42.98
5298;BME280;14738;42.668;23.250;2023-06-22T04:10:31;48553.09;;;-141.90;42.29
5298;BME280;14738;42.668;23.250;2023-06-22T04:12:57;48568.97;;;-141.90;43.17
5298;BME280;14738;42.668;23.250;2023-06-22T04:15:22;48614.63;;;-141.90;41.48
5298;BME280;14738;42.668;23.250;2023-06-22T04:17:48;48668.25;;;-141.90;38.00
5298;BME280;14738;42.668;23.250;2023-06-22T04:20:13;48755.59;;;-141.90;36.53
5298;BME280;14738;42.668;23.250;2023-06-22T04:22:39;48789.34;;;-141.90;34.08
5298;BME280;14738;42.668;23.250;2023-06-22T04:25:05;48775.47;;;-141.90;34.63
5298;BME280;14738;42.668;23.250;2023-06-22T04:27:34;48769.50;;;-141.90;33.47
5298;BME280;14738;42.668;23.250;2023-06-22T04:30:07;48842.97;;;-141.90;32.38
5298;BME280;14738;42.668;23.250;2023-06-22T04:32:36;48898.56;;;-141.90;31.17
5298;BME280;14738;42.668;23.250;2023-06-22T04:35:05;48954.16;;;-141.90;29.48
5298;BME280;14738;42.668;23.250;2023-06-22T04:37:32;48987.91;;;-141.90;29.23
5298;BME280;14738;42.668;23.250;2023-06-22T04:39:57;48985.91;;;-141.90;29.56
5298;BME280;14738;42.668;23.250;2023-06-22T04:42:27;48976.00;;;-141.90;28.57
5298;BME280;14738;42.668;23.250;2023-06-22T04:44:53;48989.88;;;-141.90;28.30
5298;BME280;14738;42.668;23.250;2023-06-22T04:47:19;49047.47;;;-141.90;27.67
5298;BME280;14738;42.668;23.250;2023-06-22T04:49:44;48974.00;;;-141.90;28.66
5298;BME280;14738;42.668;23.250;2023-06-22T04:52:11;48981.94;;;-141.90;29.78
5298;BME280;14738;42.668;23.250;2023-06-22T04:54:39;48904.50;;;-141.90;31.84
5298;BME280;14738;42.668;23.250;2023-06-22T04:57:08;48902.53;;;-141.90;30.29
5298;BME280;14738;42.668;23.250;2023-06-22T04:59:37;48997.81;;;-141.90;28.30
5298;BME280;14738;42.668;23.250;2023-06-22T05:02:07;48900.53;;;-141.90;29.86
5298;BME280;14738;42.668;23.250;2023-06-22T05:04:33;48866.78;;;-141.90;31.30
5298;BME280;14738;42.668;23.250;2023-06-22T05:07:01;48890.59;;;-141.90;30.71
5298;BME280;14738;42.668;23.250;2023-06-22T05:09:27;48954.16;;;-141.90;30.53
5298;BME280;14738;42.668;23.250;2023-06-22T05:11:53;48898.56;;;-141.90;30.52
5298;BME280;14738;42.668;23.250;2023-06-22T05:14:19;48938.25;;;-141.90;29.98
5298;BME280;14738;42.668;23.250;2023-06-22T05:16:45;49065.34;;;-141.90;28.10
5298;BME280;14738;42.668;23.250;2023-06-22T05:19:11;49107.03;;;-141.90;26.83
5298;BME280;14738;42.668;23.250;2023-06-22T05:21:37;49047.47;;;-141.90;28.08
5298;BME280;14738;42.668;23.250;2023-06-22T05:24:03;49204.31;;;-141.90;26.09
5298;BME280;14738;42.668;23.250;2023-06-22T05:26:30;49184.47;;;-141.90;24.96
5298;BME280;14738;42.668;23.250;2023-06-22T05:28:56;49202.34;;;-141.90;25.58
5298;BME280;14738;42.668;23.250;2023-06-22T05:31:22;49277.78;;;-141.90;24.69
5298;BME280;14738;42.668;23.250;2023-06-22T05:33:48;49263.91;;;-141.90;25.20
5298;BME280;14738;42.668;23.250;2023-06-22T05:36:14;49176.53;;;-141.90;25.34
5298;BME280;14738;42.668;23.250;2023-06-22T05:38:40;49164.63;;;-141.90;25.71
5298;BME280;14738;42.668;23.250;2023-06-22T05:41:06;49164.63;;;-141.90;26.11
5298;BME280;14738;42.668;23.250;2023-06-22T05:43:32;49099.09;;;-141.90;26.20
5298;BME280;14738;42.668;23.250;2023-06-22T05:46:00;49013.72;;;-141.90;28.28
5298;BME280;14738;42.668;23.250;2023-06-22T05:48:25;49045.47;;;-141.90;27.58
5298;BME280;14738;42.668;23.250;2023-06-22T05:50:51;49079.22;;;-141.90;28.28
5298;BME280;14738;42.668;23.250;2023-06-22T05:53:17;49188.44;;;-141.90;26.66
5298;BME280;14738;42.668;23.250;2023-06-22T05:55:42;49220.22;;;-141.90;25.05
5298;BME280;14738;42.668;23.250;2023-06-22T05:58:09;49355.25;;;-141.90;23.83
5298;BME280;14738;42.668;23.250;2023-06-22T06:00:36;49196.38;;;-141.90;24.88
5298;BME280;14738;42.668;23.250;2023-06-22T06:03:02;49122.91;;;-141.90;26.89
5298;BME280;14738;42.668;23.250;2023-06-22T06:05:33;49136.81;;;-141.90;26.03
5298;BME280;14738;42.668;23.250;2023-06-22T06:08:00;49124.91;;;-141.90;25.92
5298;BME280;14738;42.668;23.250;2023-06-22T06:10:26;49085.19;;;-141.90;25.99
5298;BME280;14738;42.668;23.250;2023-06-22T06:12:52;49085.19;;;-141.90;26.46
5298;BME280;14738;42.668;23.250;2023-06-22T06:15:18;49124.91;;;-141.90;26.08
5298;BME280;14738;42.668;23.250;2023-06-22T06:17:51;49029.59;;;-141.90;28.00
5298;BME280;14738;42.668;23.250;2023-06-22T06:20:22;49097.09;;;-141.90;27.20
5298;BME280;14738;42.668;23.250;2023-06-22T06:22:48;49073.28;;;-141.90;27.32
5298;BME280;14738;42.668;23.250;2023-06-22T06:25:15;49130.84;;;-141.90;26.94
5298;BME280;14738;42.668;23.250;2023-06-22T06:27:46;49259.94;;;-141.90;25.88
5298;BME280;14738;42.668;23.250;2023-06-22T06:30:13;49287.72;;;-141.90;26.08
5298;BME280;14738;42.668;23.250;2023-06-22T06:32:39;49347.28;;;-141.90;23.88
5298;BME280;14738;42.668;23.250;2023-06-22T06:35:09;49464.44;;;-141.90;22.49
5298;BME280;14738;42.668;23.250;2023-06-22T06:37:47;49307.59;;;-141.90;23.50
5298;BME280;14738;42.668;23.250;2023-06-22T06:40:14;49385.03;;;-141.90;24.23
5298;BME280;14738;42.668;23.250;2023-06-22T06:42:41;49418.78;;;-141.90;23.07
5298;BME280;14738;42.668;23.250;2023-06-22T06:45:14;49466.44;;;-141.90;24.36
5298;BME280;14738;42.668;23.250;2023-06-22T06:47:41;49365.16;;;-141.90;25.37
5298;BME280;14738;42.668;23.250;2023-06-22T06:50:07;49476.38;;;-141.90;23.80
5298;BME280;14738;42.668;23.250;2023-06-22T06:52:33;49470.41;;;-141.90;22.73
5298;BME280;14738;42.668;23.250;2023-06-22T06:54:59;49474.38;;;-141.90;23.98
5298;BME280;14738;42.668;23.250;2023-06-22T06:57:25;49613.38;;;-141.90;22.17
5298;BME280;14738;42.668;23.250;2023-06-22T06:59:55;49625.31;;;-141.90;22.63
5298;BME280;14738;42.668;23.250;2023-06-22T07:02:22;49526.00;;;-141.90;22.41
5298;BME280;14738;42.668;23.250;2023-06-22T07:04:47;49355.25;;;-141.90;23.86
5298;BME280;14738;42.668;23.250;2023-06-22T07:07:13;49369.13;;;-141.90;24.55
5298;BME280;14738;42.668;23.250;2023-06-22T07:09:39;49347.28;;;-141.90;25.68
5298;BME280;14738;42.668;23.250;2023-06-22T07:12:05;49396.94;;;-141.90;23.67
5298;BME280;14738;42.668;23.250;2023-06-22T07:14:30;49311.56;;;-141.90;25.28
5298;BME280;14738;42.668;23.250;2023-06-22T07:16:57;49220.22;;;-141.90;26.67
5298;BME280;14738;42.668;23.250;2023-06-22T07:19:26;49305.59;;;-141.90;25.83
5298;BME280;14738;42.668;23.250;2023-06-22T07:21:54;49323.47;;;-141.90;24.52
5298;BME280;14738;42.668;23.250;2023-06-22T07:24:24;49305.59;;;-141.90;25.47
5298;BME280;14738;42.668;23.250;2023-06-22T07:26:50;49307.59;;;-141.90;24.84
5298;BME280;14738;42.668;23.250;2023-06-22T07:29:22;49246.03;;;-141.90;25.89
5298;BME280;14738;42.668;23.250;2023-06-22T07:31:49;49220.22;;;-141.90;25.18
5298;BME280;14738;42.668;23.250;2023-06-22T07:34:15;49116.97;;;-141.90;27.45
5298;BME280;14738;42.668;23.250;2023-06-22T07:36:40;49037.53;;;-141.90;28.60
5298;BME280;14738;42.668;23.250;2023-06-22T07:39:06;49007.75;;;-141.90;29.72
5298;BME280;14738;42.668;23.250;2023-06-22T07:41:32;48974.00;;;-141.90;30.54
5298;BME280;14738;42.668;23.250;2023-06-22T07:43:57;49033.56;;;-141.90;30.57
5298;BME280;14738;42.668;23.250;2023-06-22T07:46:23;48985.91;;;-141.90;30.91
5298;BME280;14738;42.668;23.250;2023-06-22T07:48:48;48944.22;;;-141.90;31.36
5298;BME280;14738;42.668;23.250;2023-06-22T07:51:14;49019.66;;;-141.90;31.45
5298;BME280;14738;42.668;23.250;2023-06-22T07:53:43;48979.97;;;-141.90;31.69
5298;BME280;14738;42.668;23.250;2023-06-22T07:56:13;48977.97;;;-141.90;31.98
5298;BME280;14738;42.668;23.250;2023-06-22T07:58:39;49035.56;;;-141.90;30.39
5298;BME280;14738;42.668;23.250;2023-06-22T08:01:04;48942.22;;;-141.90;30.75
5298;BME280;14738;42.668;23.250;2023-06-22T08:03:31;48900.53;;;-141.90;31.87
5298;BME280;14738;42.668;23.250;2023-06-22T08:05:56;48886.63;;;-141.90;34.07
5298;BME280;14738;42.668;23.250;2023-06-22T08:08:22;48878.69;;;-141.90;33.53
5298;BME280;14738;42.668;23.250;2023-06-22T08:10:48;48916.41;;;-141.90;33.40
5298;BME280;14738;42.668;23.250;2023-06-22T08:13:13;48964.06;;;-141.90;32.95
5298;BME280;14738;42.668;23.250;2023-06-22T08:15:38;48892.59;;;-141.90;32.58
5298;BME280;14738;42.668;23.250;2023-06-22T08:18:05;48858.84;;;-141.90;32.73
5298;BME280;14738;42.668;23.250;2023-06-22T08:20:30;48884.66;;;-141.90;33.40
5298;BME280;14738;42.668;23.250;2023-06-22T08:22:56;48856.84;;;-141.90;33.71
5298;BME280;14738;42.668;23.250;2023-06-22T08:25:23;48906.50;;;-141.90;34.38
5298;BME280;14738;42.668;23.250;2023-06-22T08:27:49;48940.25;;;-141.90;32.40
5298;BME280;14738;42.668;23.250;2023-06-22T08:30:15;48954.16;;;-141.90;33.23
5298;BME280;14738;42.668;23.250;2023-06-22T08:32:40;48930.31;;;-141.90;33.27
5298;BME280;14738;42.668;23.250;2023-06-22T08:35:06;48918.41;;;-141.90;33.58
5298;BME280;14738;42.668;23.250;2023-06-22T08:37:33;48979.97;;;-141.90;32.29
5298;BME280;14738;42.668;23.250;2023-06-22T08:40:01;48970.03;;;-141.90;33.19
5298;BME280;14738;42.668;23.250;2023-06-22T08:42:27;48960.09;;;-141.90;31.88
5298;BME280;14738;42.668;23.250;2023-06-22T08:44:52;48916.41;;;-141.90;31.44
5298;BME280;14738;42.668;23.250;2023-06-22T08:47:19;48956.13;;;-141.90;32.97
5298;BME280;14738;42.668;23.250;2023-06-22T08:49:44;48946.19;;;-141.90;31.65
5298;BME280;14738;42.668;23.250;2023-06-22T08:52:10;48934.28;;;-141.90;32.27
5298;BME280;14738;42.668;23.250;2023-06-22T08:54:35;48946.19;;;-141.90;33.44
5298;BME280;14738;42.668;23.250;2023-06-22T08:57:02;48924.38;;;-141.90;30.46
5298;BME280;14738;42.668;23.250;2023-06-22T08:59:27;48920.41;;;-141.90;31.13
5298;BME280;14738;42.668;23.250;2023-06-22T09:01:53;48850.91;;;-141.90;30.72
5298;BME280;14738;42.668;23.250;2023-06-22T09:04:18;48862.81;;;-141.90;32.78
5298;BME280;14738;42.668;23.250;2023-06-22T09:06:43;48854.88;;;-141.90;32.07
5298;BME280;14738;42.668;23.250;2023-06-22T09:09:12;48870.75;;;-141.90;31.02
5298;BME280;14738;42.668;23.250;2023-06-22T09:11:39;48850.91;;;-141.90;31.14
5298;BME280;14738;42.668;23.250;2023-06-22T09:14:04;48850.91;;;-141.90;30.64
5298;BME280;14738;42.668;23.250;2023-06-22T09:16:30;48882.66;;;-141.90;30.49
5298;BME280;14738;42.668;23.250;2023-06-22T09:18:55;48842.97;;;-141.90;29.33
5298;BME280;14738;42.668;23.250;2023-06-22T09:21:21;48835.03;;;-141.90;32.38
5298;BME280;14738;42.668;23.250;2023-06-22T09:23:46;48858.84;;;-141.90;32.79
5298;BME280;14738;42.668;23.250;2023-06-22T09:26:15;48842.97;;;-141.90;32.10
5298;BME280;14738;42.668;23.250;2023-06-22T09:28:41;48884.66;;;-141.90;33.50
5298;BME280;14738;42.668;23.250;2023-06-22T09:31:06;48882.66;;;-141.90;30.74
5298;BME280;14738;42.668;23.250;2023-06-22T09:33:32;48890.59;;;-141.90;29.13
5298;BME280;14738;42.668;23.250;2023-06-22T09:35:57;48870.75;;;-141.90;30.74
5298;BME280;14738;42.668;23.250;2023-06-22T09:38:23;48848.91;;;-141.90;29.96
5298;BME280;14738;42.668;23.250;2023-06-22T09:40:48;48886.63;;;-141.90;30.09
5298;BME280;14738;42.668;23.250;2023-06-22T09:43:14;48866.78;;;-141.90;29.29
5298;BME280;14738;42.668;23.250;2023-06-22T09:45:39;48835.03;;;-141.90;30.47
5298;BME280;14738;42.668;23.250;2023-06-22T09:48:05;48842.97;;;-141.90;30.18
5298;BME280;14738;42.668;23.250;2023-06-22T09:50:30;48880.69;;;-141.90;29.22
5298;BME280;14738;42.668;23.250;2023-06-22T09:52:56;48868.78;;;-141.90;30.07
5298;BME280;14738;42.668;23.250;2023-06-22T09:55:22;48862.81;;;-141.90;29.50
5298;BME280;14738;42.668;23.250;2023-06-22T09:57:47;48876.72;;;-141.90;30.26
5298;BME280;14738;42.668;23.250;2023-06-22T10:00:14;48886.63;;;-141.90;29.57
5298;BME280;14738;42.668;23.250;2023-06-22T10:02:44;48846.94;;;-141.90;29.16
5298;BME280;14738;42.668;23.250;2023-06-22T10:05:10;48864.81;;;-141.90;30.92
5298;BME280;14738;42.668;23.250;2023-06-22T10:07:35;48926.34;;;-141.90;30.71
5298;BME280;14738;42.668;23.250;2023-06-22T10:10:06;48946.19;;;-141.90;29.97
5298;BME280;14738;42.668;23.250;2023-06-22T10:12:31;48966.06;;;-141.90;28.63
5298;BME280;14738;42.668;23.250;2023-06-22T10:14:57;48922.38;;;-141.90;28.93
5298;BME280;14738;42.668;23.250;2023-06-22T10:17:22;48872.75;;;-141.90;27.67
5298;BME280;14738;42.668;23.250;2023-06-22T10:19:47;48912.44;;;-141.90;28.53
5298;BME280;14738;42.668;23.250;2023-06-22T10:22:13;48954.16;;;-141.90;28.49
5298;BME280;14738;42.668;23.250;2023-06-22T10:24:38;48970.03;;;-141.90;27.66
5298;BME280;14738;42.668;23.250;2023-06-22T10:27:10;48974.00;;;-141.90;28.21
5298;BME280;14738;42.668;23.250;2023-06-22T10:29:35;48970.03;;;-141.90;27.92
5298;BME280;14738;42.668;23.250;2023-06-22T10:32:01;48989.88;;;-141.90;28.08
5298;BME280;14738;42.668;23.250;2023-06-22T10:34:27;48966.06;;;-141.90;28.76
5298;BME280;14738;42.668;23.250;2023-06-22T10:36:52;48954.16;;;-141.90;27.95
5298;BME280;14738;42.668;23.250;2023-06-22T10:39:18;48977.97;;;-141.90;27.96
5298;BME280;14738;42.668;23.250;2023-06-22T10:41:43;48968.03;;;-141.90;26.92
5298;BME280;14738;42.668;23.250;2023-06-22T10:44:09;48989.88;;;-141.90;26.99
5298;BME280;14738;42.668;23.250;2023-06-22T10:46:34;48985.91;;;-141.90;27.42
5298;BME280;14738;42.668;23.250;2023-06-22T10:49:00;49009.75;;;-141.90;26.84
5298;BME280;14738;42.668;23.250;2023-06-22T10:51:25;48934.28;;;-141.90;28.10
5298;BME280;14738;42.668;23.250;2023-06-22T10:53:51;48966.06;;;-141.90;27.22
5298;BME280;14738;42.668;23.250;2023-06-22T10:56:17;48972.00;;;-141.90;27.93
5298;BME280;14738;42.668;23.250;2023-06-22T10:58:44;48962.09;;;-141.90;27.20
5298;BME280;14738;42.668;23.250;2023-06-22T11:01:09;48908.47;;;-141.90;28.03
5298;BME280;14738;42.668;23.250;2023-06-22T11:03:35;48942.22;;;-141.90;27.97
5298;BME280;14738;42.668;23.250;2023-06-22T11:06:00;48898.56;;;-141.90;28.02
5298;BME280;14738;42.668;23.250;2023-06-22T11:08:25;48888.63;;;-141.90;26.41
5298;BME280;14738;42.668;23.250;2023-06-22T11:10:51;48878.69;;;-141.90;28.08
5298;BME280;14738;42.668;23.250;2023-06-22T11:13:17;48938.25;;;-141.90;26.79
5298;BME280;14738;42.668;23.250;2023-06-22T11:15:42;48914.44;;;-141.90;27.22
5298;BME280;14738;42.668;23.250;2023-06-22T11:18:08;48906.50;;;-141.90;26.31
5298;BME280;14738;42.668;23.250;2023-06-22T11:20:34;48902.53;;;-141.90;27.46
5298;BME280;14738;42.668;23.250;2023-06-22T11:23:04;48902.53;;;-141.90;27.02
5298;BME280;14738;42.668;23.250;2023-06-22T11:25:29;48918.41;;;-141.90;27.52
5298;BME280;14738;42.668;23.250;2023-06-22T11:27:55;48898.56;;;-141.90;26.08
5298;BME280;14738;42.668;23.250;2023-06-22T11:30:20;48920.41;;;-141.90;27.07
5298;BME280;14738;42.668;23.250;2023-06-22T11:32:46;48964.06;;;-141.90;26.41
5298;BME280;14738;42.668;23.250;2023-06-22T11:35:11;48962.09;;;-141.90;26.87
5298;BME280;14738;42.668;23.250;2023-06-22T11:37:36;48979.97;;;-141.90;25.85
5298;BME280;14738;42.668;23.250;2023-06-22T11:40:02;48910.47;;;-141.90;27.04
5298;BME280;14738;42.668;23.250;2023-06-22T11:42:30;48878.69;;;-141.90;27.17
5298;BME280;14738;42.668;23.250;2023-06-22T11:44:55;48878.69;;;-141.90;27.63
5298;BME280;14738;42.668;23.250;2023-06-22T11:47:21;48934.28;;;-141.90;26.97
5298;BME280;14738;42.668;23.250;2023-06-22T11:49:46;48906.50;;;-141.90;26.97
5298;BME280;14738;42.668;23.250;2023-06-22T11:52:12;48839.00;;;-141.90;30.78
5298;BME280;14738;42.668;23.250;2023-06-22T11:54:37;48835.03;;;-141.90;30.77
5298;BME280;14738;42.668;23.250;2023-06-22T11:57:04;48837.00;;;-141.90;33.67
5298;BME280;14738;42.668;23.250;2023-06-22T11:59:29;48844.94;;;-141.90;31.15
5298;BME280;14738;42.668;23.250;2023-06-22T12:01:54;48831.03;;;-141.90;28.83
5298;BME280;14738;42.668;23.250;2023-06-22T12:04:20;48896.56;;;-141.90;31.40
5298;BME280;14738;42.668;23.250;2023-06-22T12:06:45;48848.91;;;-141.90;31.85
5298;BME280;14738;42.668;23.250;2023-06-22T12:09:11;48878.69;;;-141.90;31.41
5298;BME280;14738;42.668;23.250;2023-06-22T12:11:38;48868.78;;;-141.90;31.95
5298;BME280;14738;42.668;23.250;2023-06-22T12:14:04;48842.97;;;-141.90;32.76
5298;BME280;14738;42.668;23.250;2023-06-22T12:16:29;48799.28;;;-141.90;34.33
5298;BME280;14738;42.668;23.250;2023-06-22T12:18:55;48779.44;;;-141.90;37.28
5298;BME280;14738;42.668;23.250;2023-06-22T12:21:20;48771.47;;;-141.90;38.48
5298;BME280;14738;42.668;23.250;2023-06-22T12:23:45;48721.84;;;-141.90;38.13
5298;BME280;14738;42.668;23.250;2023-06-22T12:26:11;48719.88;;;-141.90;40.47
5298;BME280;14738;42.668;23.250;2023-06-22T12:28:36;48684.13;;;-141.90;44.28
5298;BME280;14738;42.668;23.250;2023-06-22T12:31:02;48678.16;;;-141.90;45.84
5298;BME280;14738;42.668;23.250;2023-06-22T12:33:27;48576.91;;;-141.90;48.08
5298;BME280;14738;42.668;23.250;2023-06-22T12:35:53;48568.97;;;-141.90;50.81
5298;BME280;14738;42.668;23.250;2023-06-22T12:38:18;48549.13;;;-141.90;63.15
5298;BME280;14738;42.668;23.250;2023-06-22T12:40:43;48525.31;;;-141.90;64.33
5298;BME280;14738;42.668;23.250;2023-06-22T12:43:09;48515.38;;;-141.90;69.48
5298;BME280;14738;42.668;23.250;2023-06-22T12:45:34;48523.31;;;-141.90;72.71
5298;BME280;14738;42.668;23.250;2023-06-22T12:48:00;48521.34;;;-141.90;69.06